createdAt,value
2023-02-11T00:03:57.385Z,0.61
2023-02-11T00:08:09.811Z,0.61
2023-02-11T00:12:22.972Z,0.55
2023-02-11T00:16:37.943Z,0.50
2023-02-11T00:20:50.472Z,0.51
2023-02-11T00:25:03.133Z,0.55
2023-02-11T00:29:15.616Z,0.58
2023-02-11T00:33:27.847Z,0.50
2023-02-11T00:37:40.134Z,0.40
2023-02-11T00:41:52.530Z,0.44
2023-02-11T00:46:05.163Z,0.45
2023-02-11T00:50:18.555Z,0.42
2023-02-11T00:54:30.978Z,0.41
2023-02-11T00:58:43.270Z,0.52
2023-02-11T01:02:57.154Z,0.57
2023-02-11T01:07:09.653Z,0.48
2023-02-11T01:11:24.177Z,0.31
2023-02-11T01:15:36.740Z,0.35
2023-02-11T01:19:50.845Z,0.40
2023-02-11T01:24:03.358Z,0.20
2023-02-11T01:28:34.053Z,0.14
2023-02-11T01:32:46.460Z,0.28
2023-02-11T01:36:59.860Z,0.27
2023-02-11T01:41:15.264Z,1.51
2023-02-11T01:45:47.268Z,1.14
2023-02-11T01:50:02.823Z,0.78
2023-02-11T01:54:39.082Z,0.55
2023-02-11T01:58:53.561Z,0.29
2023-02-11T02:03:11.464Z,0.24
2023-02-11T02:07:39.895Z,0.33
2023-02-11T02:11:52.966Z,0.49
2023-02-11T02:16:09.960Z,0.40
2023-02-11T02:20:52.721Z,0.45
2023-02-11T02:25:29.502Z,0.12
2023-02-11T02:30:23.866Z,-0.07
2023-02-11T02:34:50.254Z,-0.22
2023-02-11T02:39:18.690Z,-0.35
2023-02-11T02:43:31.661Z,-0.38
2023-02-11T02:47:44.114Z,-0.44
2023-02-11T02:52:15.122Z,-0.52
2023-02-11T02:56:55.826Z,-0.60
2023-02-11T03:01:40.353Z,-0.53
2023-02-11T03:05:59.346Z,-0.53
2023-02-11T03:10:17.840Z,-0.68
2023-02-11T03:14:32.653Z,-0.68
2023-02-11T03:18:50.848Z,-0.75
2023-02-11T03:23:11.574Z,-0.71
2023-02-11T03:27:35.158Z,-0.81
2023-02-11T03:32:08.981Z,-0.89
2023-02-11T03:36:29.321Z,-1.03
2023-02-11T03:40:45.892Z,-1.13
2023-02-11T03:45:05.293Z,-1.15
2023-02-11T03:49:21.793Z,-1.05
2023-02-11T03:53:37.325Z,-1.11
2023-02-11T03:57:49.834Z,-1.08
2023-02-11T04:02:02.088Z,-1.05
2023-02-11T04:06:14.528Z,-1.07
2023-02-11T04:10:26.906Z,-1.19
2023-02-11T04:14:39.296Z,-1.23
2023-02-11T04:18:51.606Z,-1.21
2023-02-11T04:23:03.982Z,-1.28
2023-02-11T04:27:16.455Z,-1.28
2023-02-11T04:31:29.013Z,-1.25
2023-02-11T04:35:41.489Z,-1.33
2023-02-11T04:39:53.798Z,-1.31
2023-02-11T04:44:06.437Z,-1.28
2023-02-11T04:48:18.805Z,-1.20
2023-02-11T04:52:31.204Z,-1.38
2023-02-11T04:56:43.802Z,-1.47
2023-02-11T05:00:56.264Z,-1.32
2023-02-11T05:05:09.013Z,-1.44
2023-02-11T05:09:21.289Z,-1.50
2023-02-11T05:13:33.795Z,-1.55
2023-02-11T05:17:46.264Z,-1.45
2023-02-11T05:22:03.103Z,-1.52
2023-02-11T05:26:16.097Z,-1.39
2023-02-11T05:30:28.572Z,-1.41
2023-02-11T05:34:41.003Z,-1.65
2023-02-11T05:38:53.384Z,-1.58
2023-02-11T05:43:05.689Z,-1.58
2023-02-11T05:47:18.192Z,-1.54
2023-02-11T05:51:30.592Z,-1.51
2023-02-11T05:55:43.063Z,-1.44
2023-02-11T05:59:55.479Z,-1.45
2023-02-11T06:04:07.847Z,-1.32
2023-02-11T06:08:20.043Z,-1.13
2023-02-11T06:12:32.344Z,-1.19
2023-02-11T06:16:44.781Z,-1.06
2023-02-11T06:20:57.310Z,-0.84
2023-02-11T06:25:11.323Z,-0.64
2023-02-11T06:29:23.803Z,-0.47
2023-02-11T06:33:36.564Z,-0.25
2023-02-11T06:37:50.037Z,-0.30
2023-02-11T06:42:02.413Z,-0.18
2023-02-11T06:46:14.877Z,-0.02
2023-02-11T06:50:27.265Z,-1.05
2023-02-11T06:54:39.602Z,-1.15
2023-02-11T06:58:58.256Z,-0.36
2023-02-11T07:03:10.672Z,-0.62
2023-02-11T07:07:23.101Z,-0.53
2023-02-11T07:11:35.462Z,-0.06
2023-02-11T07:15:48.130Z,0.04
2023-02-11T07:20:00.563Z,0.12
2023-02-11T07:24:13.610Z,0.45
2023-02-11T07:28:25.995Z,0.80
2023-02-11T07:32:44.329Z,0.92
2023-02-11T07:36:57.708Z,1.06
2023-02-11T07:41:13.732Z,1.75
2023-02-11T07:45:27.706Z,1.87
2023-02-11T07:49:40.424Z,1.71
2023-02-11T07:53:53.722Z,2.26
2023-02-11T07:58:06.855Z,2.91
2023-02-11T08:02:20.888Z,2.77
2023-02-11T08:06:35.361Z,2.50
2023-02-11T08:10:50.496Z,2.75
2023-02-11T08:15:03.208Z,3.12
2023-02-11T08:19:16.981Z,3.21
2023-02-11T08:23:29.493Z,3.39
2023-02-11T08:27:41.755Z,4.53
2023-02-11T08:31:54.289Z,5.51
2023-02-11T08:36:19.632Z,5.29
2023-02-11T08:40:31.992Z,5.57
2023-02-11T08:44:44.677Z,6.55
2023-02-11T08:48:57.175Z,6.41
2023-02-11T08:53:09.902Z,6.65
2023-02-11T08:57:22.240Z,7.34
2023-02-11T09:01:34.890Z,7.88
2023-02-11T09:05:50.430Z,7.88
2023-02-11T09:10:03.155Z,7.83
2023-02-11T09:14:24.494Z,8.73
2023-02-11T09:18:36.856Z,8.47
2023-02-11T09:22:49.421Z,8.52
2023-02-11T09:27:01.659Z,8.63
2023-02-11T09:31:17.008Z,8.68
2023-02-11T09:35:29.593Z,8.74
2023-02-11T09:39:41.926Z,9.46
2023-02-11T09:43:57.702Z,9.79
2023-02-11T09:48:19.240Z,9.60
2023-02-11T09:52:49.349Z,9.78
2023-02-11T09:57:01.927Z,10.18
2023-02-11T10:01:59.028Z,10.88
2023-02-11T10:06:23.297Z,11.12
2023-02-11T10:10:59.025Z,10.77
2023-02-11T10:15:30.269Z,11.20
2023-02-11T10:20:00.545Z,11.33
2023-02-11T10:24:16.222Z,11.49
2023-02-11T10:28:34.520Z,12.12
2023-02-11T10:33:02.818Z,12.95
2023-02-11T10:37:15.476Z,13.11
2023-02-11T10:41:34.211Z,12.64
2023-02-11T10:45:51.831Z,12.60
2023-02-11T10:50:25.902Z,12.83
2023-02-11T10:54:39.287Z,13.12
2023-02-11T10:59:01.868Z,13.19
2023-02-11T11:03:25.712Z,13.69
2023-02-11T11:07:38.306Z,12.94
2023-02-11T11:11:54.193Z,13.45
2023-02-11T11:16:09.721Z,13.89
2023-02-11T11:20:30.094Z,13.94
2023-02-11T11:24:46.975Z,13.36
2023-02-11T11:29:07.454Z,13.54
2023-02-11T11:33:33.451Z,13.13
2023-02-11T11:37:46.399Z,13.36
2023-02-11T11:42:03.480Z,13.71
2023-02-11T11:46:25.371Z,14.03
2023-02-11T11:50:42.768Z,13.45
2023-02-11T11:55:13.248Z,14.01
2023-02-11T11:59:25.636Z,13.58
2023-02-11T12:04:00.160Z,13.42
2023-02-11T12:08:38.101Z,13.09
2023-02-11T12:12:59.777Z,13.39
2023-02-11T12:17:17.924Z,13.21
2023-02-11T12:21:50.565Z,13.33
2023-02-11T12:26:25.655Z,15.21
2023-02-11T12:31:21.422Z,17.38
2023-02-11T12:35:55.577Z,16.71
2023-02-11T12:40:28.942Z,14.45
2023-02-11T12:44:52.011Z,14.44
2023-02-11T12:49:11.053Z,14.40
2023-02-11T12:53:23.432Z,13.19
2023-02-11T12:57:38.774Z,13.48
2023-02-11T13:01:56.395Z,13.71
2023-02-11T13:06:15.044Z,13.12
2023-02-11T13:10:41.635Z,12.62
2023-02-11T13:15:00.323Z,12.34
2023-02-11T13:19:26.913Z,12.31
2023-02-11T13:23:58.177Z,11.95
2023-02-11T13:28:29.533Z,12.00
2023-02-11T13:33:12.619Z,11.66
2023-02-11T13:37:39.313Z,12.11
2023-02-11T13:42:03.685Z,12.17
2023-02-11T13:46:16.377Z,12.17
2023-02-11T13:50:30.736Z,12.12
2023-02-11T13:54:50.177Z,12.12
2023-02-11T13:59:05.781Z,11.75
2023-02-11T14:03:39.191Z,11.87
2023-02-11T14:08:28.297Z,11.78
2023-02-11T14:12:40.948Z,11.75
2023-02-11T14:17:02.217Z,11.65
2023-02-11T14:21:24.768Z,11.78
2023-02-11T14:25:41.487Z,11.47
2023-02-11T14:30:44.763Z,11.68
2023-02-11T14:35:20.873Z,11.45
2023-02-11T14:39:58.047Z,11.39
2023-02-11T14:44:21.628Z,11.13
2023-02-11T14:48:36.625Z,11.18
2023-02-11T14:52:49.785Z,10.97
2023-02-11T14:57:17.722Z,10.86
2023-02-11T15:01:35.636Z,10.94
2023-02-11T15:05:55.810Z,10.76
2023-02-11T15:10:18.915Z,10.64
2023-02-11T15:14:34.189Z,10.63
2023-02-11T15:18:52.044Z,10.20
2023-02-11T15:23:09.315Z,10.20
2023-02-11T15:27:23.104Z,9.92
2023-02-11T15:31:37.856Z,9.69
2023-02-11T15:35:51.184Z,9.45
2023-02-11T15:40:19.327Z,9.43
2023-02-11T15:44:34.071Z,9.18
2023-02-11T15:48:51.115Z,8.91
2023-02-11T15:53:29.341Z,8.48
2023-02-11T15:57:51.329Z,8.19
2023-02-11T16:02:18.587Z,8.04
2023-02-11T16:06:42.979Z,7.32
2023-02-11T16:11:05.369Z,6.92
2023-02-11T16:15:38.576Z,7.33
2023-02-11T16:19:53.079Z,7.29
2023-02-11T16:24:21.424Z,7.13
2023-02-11T16:28:37.387Z,7.00
2023-02-11T16:32:49.938Z,7.07
2023-02-11T16:37:05.224Z,6.51
2023-02-11T16:41:17.486Z,6.22
2023-02-11T16:45:29.850Z,6.01
2023-02-11T16:49:43.141Z,5.82
2023-02-11T16:53:55.487Z,5.69
2023-02-11T16:58:10.112Z,5.71
2023-02-11T17:02:28.486Z,5.69
2023-02-11T17:06:42.761Z,5.59
2023-02-11T17:10:56.046Z,5.43
2023-02-11T17:15:08.919Z,5.27
2023-02-11T17:19:22.069Z,5.24
2023-02-11T17:23:34.494Z,5.12
2023-02-11T17:27:51.225Z,5.05
2023-02-11T17:32:06.625Z,4.99
2023-02-11T17:36:19.151Z,4.81
2023-02-11T17:40:33.220Z,4.66
2023-02-11T17:44:46.562Z,4.54
2023-02-11T17:48:59.978Z,4.54
2023-02-11T17:53:12.456Z,4.35
2023-02-11T17:57:24.830Z,5.04
2023-02-11T18:01:39.394Z,4.69
2023-02-11T18:05:52.017Z,4.71
2023-02-11T18:10:07.601Z,4.67
2023-02-11T18:14:21.498Z,4.52
2023-02-11T18:18:33.979Z,5.10
2023-02-11T18:22:46.518Z,4.91
2023-02-11T18:26:59.036Z,4.89
2023-02-11T18:31:12.033Z,4.94
2023-02-11T18:35:27.558Z,4.47
2023-02-11T18:39:40.670Z,4.49
2023-02-11T18:43:53.516Z,4.20
2023-02-11T18:48:07.298Z,3.91
2023-02-11T18:52:19.855Z,3.72
2023-02-11T18:56:33.700Z,4.42
2023-02-11T19:00:50.067Z,3.89
2023-02-11T19:05:06.207Z,3.42
2023-02-11T19:09:20.036Z,3.22
2023-02-11T19:13:32.546Z,4.03
2023-02-11T19:17:44.869Z,4.24
2023-02-11T19:21:58.520Z,3.64
2023-02-11T19:26:10.844Z,3.28
2023-02-11T19:30:23.238Z,3.39
2023-02-11T19:34:41.526Z,3.67
2023-02-11T19:38:54.359Z,3.29
2023-02-11T19:43:06.735Z,3.56
2023-02-11T19:47:19.806Z,3.34
2023-02-11T19:51:39.504Z,3.30
2023-02-11T19:55:52.301Z,3.51
2023-02-11T20:00:05.816Z,3.79
2023-02-11T20:04:25.578Z,3.83
2023-02-11T20:08:38.069Z,4.08
2023-02-11T20:12:50.701Z,4.03
2023-02-11T20:17:04.250Z,4.08
2023-02-11T20:21:20.069Z,3.35
2023-02-11T20:25:32.451Z,3.56
2023-02-11T20:29:45.004Z,3.99
2023-02-11T20:34:00.241Z,3.66
2023-02-11T20:38:12.543Z,3.51
2023-02-11T20:42:25.573Z,3.52
2023-02-11T20:46:40.550Z,3.27
2023-02-11T20:50:54.455Z,3.64
2023-02-11T20:55:06.878Z,3.10
2023-02-11T20:59:19.832Z,2.77
2023-02-11T21:03:32.308Z,2.73
2023-02-11T21:07:44.676Z,2.58
2023-02-11T21:11:57.467Z,3.31
2023-02-11T21:16:14.130Z,3.36
2023-02-11T21:20:26.455Z,3.42
2023-02-11T21:24:39.020Z,2.87
2023-02-11T21:28:52.721Z,2.20
2023-02-11T21:33:05.643Z,3.28
2023-02-11T21:37:18.028Z,3.36
2023-02-11T21:41:30.706Z,2.95
2023-02-11T21:45:48.175Z,2.62
2023-02-11T21:50:00.534Z,3.24
2023-02-11T21:54:12.918Z,2.72
2023-02-11T21:58:25.240Z,2.55
2023-02-11T22:02:40.949Z,3.10
2023-02-11T22:06:53.466Z,3.27
2023-02-11T22:11:09.269Z,3.14
2023-02-11T22:15:22.295Z,3.61
2023-02-11T22:19:36.766Z,2.76
2023-02-11T22:23:52.006Z,2.75
2023-02-11T22:28:04.497Z,3.15
2023-02-11T22:32:18.597Z,2.76
2023-02-11T22:36:33.792Z,2.52
2023-02-11T22:40:46.149Z,2.44
2023-02-11T22:44:58.375Z,2.30
2023-02-11T22:49:13.371Z,2.22
2023-02-11T22:53:25.893Z,2.08
2023-02-11T22:57:38.276Z,1.96
2023-02-11T23:01:50.804Z,2.05
2023-02-11T23:06:03.887Z,1.97
2023-02-11T23:10:19.046Z,1.95
2023-02-11T23:14:32.039Z,2.24
2023-02-11T23:18:46.245Z,2.02
2023-02-11T23:22:58.710Z,2.03
2023-02-11T23:27:11.044Z,2.05
2023-02-11T23:31:29.979Z,2.25
2023-02-11T23:35:42.438Z,2.05
2023-02-11T23:39:54.845Z,1.99
2023-02-11T23:44:07.151Z,2.71
2023-02-11T23:48:19.725Z,2.14
2023-02-11T23:52:32.019Z,2.50
2023-02-11T23:56:44.309Z,2.56
